Humidity-temperature Sensor

Selected Measurement Type: Air Temperature

 
Air Temperature [°C]     6 entries per hour
Showing data from 5/19/2022 (00:00:00 Z) to 5/18/2022 (00:01:00 Z)
Previous Next [ Day | 3-Days | 7-Days ]
First Last
Prev [ Day | 3-Days | 7-Days ] Next
First Last

Start Time:     :
End Time:     :     
Time (in GMT) :00 :50 :40 :30 :20 :10
Previous Next [ Day | 3-Days | 7-Days ]
First Last
Prev [ Day | 3-Days | 7-Days ] Next
First Last


123 => good data
MM => data is determined as missing
-- => data not received/configured
Back to Top Back to Top
5/19/2022 00:00 to 23:10 27.40 27.46 27.34 27.58 27.59 27.40
5/18/2022 23:00 to 22:10 27.49 27.47 27.54 27.56 27.53 27.50
5/18/2022 22:00 to 21:10 27.51 27.47 27.29 27.41 27.50 27.38
5/18/2022 21:00 to 20:10 27.34 27.47 27.48 27.30 27.27 27.26
5/18/2022 20:00 to 19:10 27.31 27.18 27.11 27.03 27.15 27.49
5/18/2022 19:00 to 18:10 27.40 27.38 27.28 27.41 27.37 27.65
5/18/2022 18:00 to 17:10 27.48 27.59 27.34 27.71 27.39 27.66
5/18/2022 17:00 to 16:10 27.49 27.49 27.46 27.53 27.42 27.50
5/18/2022 16:00 to 15:10 27.55 27.51 27.46 27.35 27.57 27.40
5/18/2022 15:00 to 14:10 27.42 27.36 27.29 27.24 27.19 27.25
5/18/2022 14:00 to 13:10 27.34 27.37 27.26 27.36 27.21 27.18
5/18/2022 13:00 to 12:10 27.07 27.04 26.90 26.69 26.54 26.49
5/18/2022 12:00 to 11:10 26.50 26.91 26.94 26.96 27.08 27.13
5/18/2022 11:00 to 10:10 27.05 27.09 27.02 26.98 27.03 27.07
5/18/2022 10:00 to 9:10 26.93 27.11 27.05 27.31 26.91 26.78
5/18/2022 09:00 to 8:10 26.80 26.53 26.65 27.07 26.79 26.79
5/18/2022 08:00 to 7:10 26.76 26.74 26.79 26.95 26.84 26.76
5/18/2022 07:00 to 6:10 26.79 26.81 26.46 26.64 26.67 26.81
5/18/2022 06:00 to 5:10 26.88 27.12 27.23 27.10 27.41 27.13
5/18/2022 05:00 to 4:10 27.07 27.13 27.00 27.09 27.13 27.00
5/18/2022 04:00 to 3:10 27.02 27.03 26.89 26.83 26.80 26.91
5/18/2022 03:00 to 2:10 26.89 26.96 26.89 26.84 27.00 27.01
5/18/2022 02:00 to 1:10 26.95 26.76 26.67 26.59 26.45 26.41
5/18/2022 01:00 to 0:10 26.45 26.57 26.52 26.43 26.45 26.55